Flight Track Log - Related Links

Times and Time Zones

All times are in EDT time to prevent confusion due to time zone crossing. See the SWA558 flight status page for this flight to view local times or setup timezone preferences in your user account.

Time Position Orientation Groundspeed Altitude Reporting Facility
EDT Latitude Longitude Course Direction KTS MPH feet Rate Location/Type
Tue 12:31:31 PM 26.6178 -81.7150 360° North 221 254 3,900  Level Miami Center
Tue 12:32:31 PM 26.6844 -81.7156 360° North 284 327 7,000 3,100 Climbing Miami Center
Tue 12:33:31 PM 26.7614 -81.7233 355° North 294 338 10,100 2,450 Climbing Miami Center
Tue 12:34:31 PM 26.8531 -81.7317 355° North 303 349 11,900 2,500 Climbing Miami Center
Tue 12:35:31 PM 26.9572 -81.7408 356° North 333 383 15,100 3,000 Climbing Miami Center
Tue 12:36:31 PM 27.0586 -81.7614 350° North 360 414 17,900 2,500 Climbing Miami Center
Tue 12:37:31 PM 27.1642 -81.7914 346° North 375 432 20,100 2,250 Climbing Miami Center
Tue 12:38:31 PM 27.2717 -81.8217 346° North 395 455 22,400 2,200 Climbing Miami Center
Tue 12:39:31 PM 27.3833 -81.8500 347° North 401 461 24,500 1,900 Climbing Miami Center
Tue 12:40:31 PM 27.4867 -81.8778 347° North 412 474 26,200 1,464 Climbing Miami Center
Tue 12:42:19 PM 27.7061 -81.9411 346° North 424 488 28,600 1,321 Climbing Jacksonville Center
Tue 12:43:19 PM 27.8317 -81.9703 348° North 450 518 29,900 1,550 Climbing Jacksonville Center
Tue 12:44:19 PM 27.9508 -82.0044 346° North 455 524 31,700 1,950 Climbing Jacksonville Center
Tue 12:45:19 PM 28.0597 -82.0600 336° Northwest 438 504 33,800 1,800 Climbing Jacksonville Center
Tue 12:46:19 PM 28.1664 -82.1156 335° Northwest 427 491 35,300 1,450 Climbing Jacksonville Center
Tue 12:47:19 PM 28.2772 -82.1594 341° North 422 486 36,700 1,350 Climbing Jacksonville Center
Tue 12:48:19 PM 28.3858 -82.2036 340° North 416 479 38,000 650 Climbing Jacksonville Center
Tue 12:49:19 PM 28.4947 -82.2453 341° North 411 473 38,000  Level Jacksonville Center
Tue 12:50:19 PM 28.6033 -82.2919 339° North 411 473 38,000  Level Jacksonville Center
Tue 12:51:19 PM 28.7122 -82.3364 340° North 411 473 38,000  Level Jacksonville Center
Tue 12:52:19 PM 28.8292 -82.3783 343° North 401 461 38,000  Level Jacksonville Center
Tue 12:53:19 PM 28.9381 -82.4253 339° North 407 468 38,000  Level Jacksonville Center
Tue 12:54:19 PM 29.0467 -82.4697 340° North 407 468 38,000  Level Jacksonville Center
Tue 12:55:19 PM 29.1553 -82.5122 341° North 407 468 38,000  Level Jacksonville Center
Tue 12:56:19 PM 29.2597 -82.5547 340° North 407 468 38,000  Level Jacksonville Center
Tue 12:57:19 PM 29.3683 -82.6019 339° North 407 468 38,000  Level Jacksonville Center
Tue 12:58:19 PM 29.4731 -82.6444 341° North 407 468 38,000  Level Jacksonville Center
Tue 12:59:19 PM 29.5711 -82.6872 339° North 413 475 38,000  Level Jacksonville Center
Tue 01:00:19 PM 29.6797 -82.7325 340° North 413 475 38,000  Level Jacksonville Center
Tue 01:01:19 PM 29.7864 -82.7753 341° North 408 470 38,000  Level Jacksonville Center
Tue 01:02:19 PM 29.8947 -82.8206 340° North 408 470 38,000  Level Jacksonville Center
Tue 01:03:19 PM 30.0056 -82.8661 340° North 408 470 38,000  Level Jacksonville Center
Tue 01:04:19 PM 30.1142 -82.9094 341° North 413 475 38,000  Level Jacksonville Center
Tue 01:05:19 PM 30.2247 -82.9550 340° North 413 475 38,000  Level Jacksonville Center
Tue 01:06:19 PM 30.3333 -83.0008 340° North 407 468 38,000  Level Jacksonville Center
Tue 01:07:19 PM 30.4419 -83.0444 341° North 407 468 38,000  Level Jacksonville Center
Tue 01:08:19 PM 30.5503 -83.0903 340° North 407 468 38,000  Level Jacksonville Center
Tue 01:09:19 PM 30.6589 -83.1342 341° North 407 468 38,000  Level Jacksonville Center
Tue 01:10:19 PM 30.7672 -83.1756 342° North 413 475 38,000  Level Jacksonville Center
Tue 01:11:19 PM 30.8903 -83.2144 345° North 408 470 38,000  Level Jacksonville Center
Tue 01:12:19 PM 31.0031 -83.2489 345° North 408 470 38,000  Level Jacksonville Center
Tue 01:13:19 PM 31.1136 -83.2808 346° North 408 470 38,000  Level Jacksonville Center
Tue 01:15:05 PM 31.3125 -83.3439 345° North 431 496 38,000  Level Atlanta Center
Tue 01:16:05 PM 31.4275 -83.3769 346° North 426 490 38,000  Level Atlanta Center
Tue 01:17:05 PM 31.5425 -83.4103 346° North 426 490 38,000  Level Atlanta Center
Tue 01:18:05 PM 31.6575 -83.4461 345° North 426 490 38,000  Level Atlanta Center
Tue 01:19:05 PM 31.7744 -83.4794 346° North 426 490 38,000  Level Atlanta Center
Tue 01:20:05 PM 31.8894 -83.5153 345° North 426 490 38,000  Level Atlanta Center
Tue 01:21:05 PM 32.0044 -83.5514 345° North 426 490 38,000  Level Atlanta Center
Tue 01:22:05 PM 32.1047 -83.5828 345° North 420 483 38,000  Level Atlanta Center
Tue 01:23:05 PM 32.2156 -83.6192 344° North 420 483 38,000  Level Atlanta Center
Tue 01:24:05 PM 32.3306 -83.6553 345° North 420 483 38,000  Level Atlanta Center
Tue 01:25:05 PM 32.4433 -83.6894 346° North 420 483 38,000  Level Atlanta Center
Tue 01:26:05 PM 32.5539 -83.7233 346° North 420 483 38,000  Level Atlanta Center
Tue 01:27:05 PM 32.6667 -83.7600 345° North 420 483 38,000  Level Atlanta Center
Tue 01:28:05 PM 32.7794 -83.7942 346° North 415 478 38,000  Level Atlanta Center
Tue 01:29:05 PM 32.8922 -83.8311 345° North 415 478 38,000  Level Atlanta Center
Tue 01:30:05 PM 33.0031 -83.8656 345° North 415 478 38,000  Level Atlanta Center
Tue 01:31:05 PM 33.1219 -83.9025 345° North 415 478 38,000  Level Atlanta Center
Tue 01:32:05 PM 33.2369 -83.9369 346° North 410 472 38,000  Level Atlanta Center
Tue 01:33:05 PM 33.3475 -83.9717 345° North 410 472 38,000  Level Atlanta Center
Tue 01:34:05 PM 33.4561 -84.0064 345° North 410 472 38,000  Level Atlanta Center
Tue 01:35:05 PM 33.5689 -84.0439 345° North 410 472 38,000  Level Atlanta Center
Tue 01:36:05 PM 33.6794 -84.0789 345° North 410 472 38,000  Level Atlanta Center
Tue 01:37:05 PM 33.7900 -84.1114 346° North 410 472 38,000  Level Atlanta Center
Tue 01:38:05 PM 33.9028 -84.1464 346° North 415 478 38,000  Level Atlanta Center
Tue 01:39:05 PM 34.0153 -84.1817 345° North 415 478 38,000  Level Atlanta Center
Tue 01:40:05 PM 34.1239 -84.2244 342° North 407 468 38,000  Level Atlanta Center
Tue 01:41:05 PM 34.2428 -84.2600 346° North 417 480 38,000  Level Atlanta Center
Tue 01:42:05 PM 34.3556 -84.2953 346° North 417 480 38,000  Level Atlanta Center
Tue 01:43:05 PM 34.4700 -84.3336 345° North 417 480 38,000  Level Atlanta Center
Tue 01:44:05 PM 34.5703 -84.3667 345° North 417 480 38,000  Level Atlanta Center
Tue 01:45:05 PM 34.6808 -84.4025 345° North 410 472 38,000  Level Atlanta Center
Tue 01:46:05 PM 34.7933 -84.4383 345° North 415 478 38,000  Level Atlanta Center
Tue 01:47:05 PM 34.9058 -84.4769 344° North 415 478 38,000  Level Atlanta Center
Tue 01:48:05 PM 35.0122 -84.5131 344° North 404 465 38,000  Level Atlanta Center
Tue 01:49:05 PM 35.1247 -84.5517 344° North 404 465 38,000  Level Atlanta Center
Tue 01:50:05 PM 35.2350 -84.5881 345° North 404 465 38,000  Level Atlanta Center
Tue 01:51:05 PM 35.3475 -84.6269 344° North 409 471 38,000  Level Atlanta Center
Tue 01:52:05 PM 35.4600 -84.6633 345° North 409 471 38,000  Level Atlanta Center
Tue 01:53:05 PM 35.5747 -84.7025 344° North 414 476 38,000  Level Atlanta Center
Tue 01:54:05 PM 35.6872 -84.7394 345° North 414 476 38,000  Level Atlanta Center
Tue 01:55:05 PM 35.7994 -84.7761 345° North 414 476 38,000  Level Atlanta Center
Tue 01:56:05 PM 35.9286 -84.8183 345° North 429 494 38,000  Level Atlanta Center
Tue 01:58:18 PM 36.1819 -84.9047 345° North 429 494 38,000  Level Indianapolis Center
Tue 01:59:19 PM 36.2969 -84.9444 344° North 430 495 38,000  Level Indianapolis Center
Tue 02:00:21 PM 36.4122 -84.9833 345° North 429 494 38,000  Level Indianapolis Center
Tue 02:01:22 PM 36.5264 -85.0219 345° North 427 491 38,000  Level Indianapolis Center
Tue 02:02:24 PM 36.6411 -85.0628 344° North 427 491 38,000  Level Indianapolis Center
Tue 02:03:26 PM 36.7558 -85.1033 344° North 428 493 38,000  Level Indianapolis Center
Tue 02:04:27 PM 36.8961 -85.1481 346° North 432 497 38,000  Level Indianapolis Center
Tue 02:05:29 PM 37.0156 -85.1758 349° North 435 501 38,000  Level Indianapolis Center
Tue 02:06:31 PM 37.1361 -85.2025 350° North 436 502 38,000  Level Indianapolis Center
Tue 02:07:32 PM 37.2558 -85.2322 349° North 438 504 38,000  Level Indianapolis Center
Tue 02:08:34 PM 37.3756 -85.2606 349° North 437 503 38,000  Level Indianapolis Center
Tue 02:09:35 PM 37.4953 -85.2894 349° North 437 503 38,000  Level Indianapolis Center
Tue 02:10:37 PM 37.6125 -85.3200 348° North 430 495 38,000  Level Indianapolis Center
Tue 02:11:39 PM 37.7314 -85.3489 349° North 433 498 38,000  Level Indianapolis Center
Tue 02:12:40 PM 37.8708 -85.3122 12° North 476 548 38,000  Level Indianapolis Center
Tue 02:13:42 PM 37.9914 -85.2506 22° Northeast 470 541 38,000  Level Indianapolis Center
Tue 02:14:43 PM 38.1186 -85.1858 22° Northeast 469 540 38,000  Level Indianapolis Center
Tue 02:15:45 PM 38.2314 -85.0969 32° Northeast 479 551 38,000  Level Indianapolis Center
Tue 02:16:47 PM 38.3436 -85.0089 32° Northeast 474 545 38,000  Level Indianapolis Center
Tue 02:17:48 PM 38.4556 -84.9200 32° Northeast 473 544 38,000  Level Indianapolis Center
Tue 02:18:50 PM 38.5675 -84.8325 31° Northeast 471 542 38,000  Level Indianapolis Center
Tue 02:19:51 PM 38.6969 -84.7306 32° Northeast 468 539 38,000  Level Indianapolis Center
Tue 02:20:53 PM 38.8083 -84.6444 31° Northeast 466 536 38,000  Level Indianapolis Center
Tue 02:21:55 PM 38.9169 -84.5875 22° Northeast 452 520 38,000  Level Indianapolis Center
Tue 02:22:57 PM 39.0389 -84.5417 16° North 450 518 38,000  Level Indianapolis Center
Tue 02:23:58 PM 39.1603 -84.4933 17° North 452 520 38,000  Level Indianapolis Center
Tue 02:25:00 PM 39.3033 -84.4367 17° North 456 525 38,000  Level Indianapolis Center
Tue 02:26:02 PM 39.4269 -84.3883 17° North 457 526 38,000  Level Indianapolis Center
Tue 02:27:03 PM 39.5497 -84.3394 17° North 458 527 38,000  Level Indianapolis Center
Tue 02:28:05 PM 39.6728 -84.3133 North 449 517 38,000  Level Indianapolis Center
Tue 02:29:07 PM 39.7764 -84.3750 335° Northwest 407 468 38,000  Level Indianapolis Center
Tue 02:30:09 PM 39.8792 -84.4436 333° Northwest 409 471 38,000 -244 Level Indianapolis Center
Tue 02:31:10 PM 39.9808 -84.5111 333° Northwest 406 467 37,500 -732 Descending Indianapolis Center
Tue 02:32:12 PM 40.0833 -84.5794 333° Northwest 407 468 36,500 -919 Descending Indianapolis Center
Tue 02:33:14 PM 40.1886 -84.6494 333° Northwest 417 480 35,600 -927 Descending Indianapolis Center
Tue 02:34:15 PM 40.2939 -84.7211 333° Northwest 422 486 34,600 -1,073 Descending Indianapolis Center
Tue 02:35:17 PM 40.3981 -84.7906 333° Northwest 416 479 33,400 -1,597 Descending Indianapolis Center
Tue 02:36:19 PM 40.5156 -84.8703 333° Northwest 405 466 31,300 -1,659 Descending Indianapolis Center
Tue 02:37:20 PM 40.6125 -84.9367 333° Northwest 390 449 30,000 -867 Descending Indianapolis Center
Tue 02:37:49 PM 40.6444 -84.9558 336° Northwest 392 451 30,000  Level Chicago Center
Tue 02:38:51 PM 40.7361 -85.0217 331° Northwest 382 440 30,000  Level Chicago Center
Tue 02:39:52 PM 40.8264 -85.1372 316° Northwest 376 433 30,000  Level Chicago Center
Tue 02:40:54 PM 40.9056 -85.2378 316° Northwest 389 448 30,000  Level Chicago Center
Tue 02:41:56 PM 40.9853 -85.3369 317° Northwest 392 451 30,000 -774 Level Chicago Center
Tue 02:42:58 PM 41.0600 -85.4336 316° Northwest 385 443 28,400 -1,742 Descending Chicago Center
Tue 02:44:00 PM 41.1325 -85.5250 317° Northwest 373 429 26,400 -1,935 Descending Chicago Center
Tue 02:45:02 PM 41.2042 -85.6169 316° Northwest 361 415 24,400 -1,403 Descending Chicago Center
Tue 02:46:04 PM 41.2733 -85.7064 316° Northwest 351 404 23,500 -919 Descending Chicago Center
Tue 02:47:06 PM 41.3631 -85.8200 316° Northwest 365 420 22,500 -1,016 Descending Chicago Center
Tue 02:48:08 PM 41.4169 -85.9350 302° West 360 414 21,400 -2,177 Descending Chicago Center
Tue 02:49:10 PM 41.4456 -86.0583 287° West 347 399 18,000 -3,073 Descending Chicago Center
Tue 02:50:11 PM 41.4731 -86.1769 287° West 336 387 15,100 -2,878 Descending Chicago Center
Tue 02:51:13 PM 41.4994 -86.2922 287° West 327 376 12,100 -2,177 Descending Chicago Center
Tue 02:52:15 PM 41.5228 -86.4047 286° West 318 366 10,600 -1,016 Descending Chicago Center
Tue 02:53:17 PM 41.5208 -86.5194 269° West 312 359 10,000 -290 Descending Chicago Center
Tue 02:54:19 PM 41.5203 -86.6536 270° West 303 349 10,000 -48 Level Chicago Center
Tue 02:55:21 PM 41.5197 -86.7589 270° West 308 354 9,900 -242 Descending Chicago Center
Tue 02:56:23 PM 41.5194 -86.8586 270° West 265 305 9,500 -1,113 Descending Chicago Center
Tue 02:57:25 PM 41.5181 -86.9703 269° West 251 289 7,600 -1,220 Descending Chicago Center
Tue 02:58:26 PM 41.5258 -87.0633 276° West 253 291 7,000 -293 Descending Chicago Center
Tue 02:59:28 PM 41.5406 -87.1558 282° West 255 293 7,000 -850 Level Chicago Center
Tue 03:00:33 PM 41.5500 -87.2667 277° West 264 304 5,200 -1,440 Descending Chicago TRACON
Tue 03:01:33 PM 41.5667 -87.3667 283° West 255 293 4,000 -600 Descending Chicago TRACON
Tue 03:02:33 PM 41.5667 -87.4500 270° West 249 287 4,000  Level Chicago TRACON
Tue 03:03:33 PM 41.5667 -87.5500 270° West 251 289 4,000  Level Chicago TRACON
Tue 03:04:27 PM 41.5667 -87.6167 270° West 253 291 4,000  Level Chicago TRACON
Tue 03:05:27 PM 41.5667 -87.7167 270° West 255 293 4,000  Level Chicago TRACON
Tue 03:06:33 PM 41.5667 -87.8167 270° West 261 300 4,000  Level Chicago TRACON
Tue 03:07:27 PM 41.6000 -87.8833 304° West 222 255 4,000  Level Chicago TRACON
Tue 03:07:42 PM 41.6044 -87.8867 331° Northwest 237 273 4,000  Level Chicago Center
Tue 03:08:44 PM 41.6478 -87.9139 335° Northwest 219 252 4,000 -453 Level Chicago Center
Tue 03:09:28 PM 41.6833 -87.8667 45° Northeast 206 237 3,200 -1,091 Descending Chicago TRACON
Tue 03:10:34 PM 41.7333 -87.8167 37° Northeast 186 214 2,000 -952 Descending Chicago TRACON
Tue 03:11:34 PM 41.7667 -87.7833 37° Northeast 130 150 1,200 -800 Descending Chicago TRACON

Login

Don't have an account? Register now (free) for customized features, flight alerts, and more!